createdAt,value
2015-04-27T00:00:12.895Z,94406
2015-04-27T00:00:31.286Z,94411
2015-04-27T00:00:49.864Z,94411
2015-04-27T00:01:08.520Z,94406
2015-04-27T00:01:27.116Z,94417
2015-04-27T00:01:45.663Z,94411
2015-04-27T00:02:04.085Z,94417
2015-04-27T00:02:22.463Z,94414
2015-04-27T00:02:40.916Z,94417
2015-04-27T00:02:59.510Z,94415
2015-04-27T00:03:17.947Z,94409
2015-04-27T00:03:36.575Z,94417
2015-04-27T00:03:54.982Z,94409
2015-04-27T00:04:13.419Z,94409
2015-04-27T00:04:31.812Z,94412
2015-04-27T00:04:50.468Z,94409
2015-04-27T00:05:08.921Z,94412
2015-04-27T00:05:27.315Z,94407
2015-04-27T00:05:45.721Z,94412
2015-04-27T00:06:04.315Z,94412
2015-04-27T00:06:22.831Z,94407
2015-04-27T00:06:41.347Z,94404
2015-04-27T00:06:59.831Z,94401
2015-04-27T00:07:18.331Z,94404
2015-04-27T00:07:36.741Z,94407
2015-04-27T00:07:55.319Z,94410
2015-04-27T00:08:13.912Z,94401
2015-04-27T00:08:32.399Z,94404
2015-04-27T00:08:50.899Z,94401
2015-04-27T00:09:09.446Z,94404
2015-04-27T00:09:28.354Z,94401
2015-04-27T00:09:46.948Z,94393
2015-04-27T00:10:05.463Z,94398
2015-04-27T00:10:23.963Z,94396
2015-04-27T00:10:42.748Z,94407
2015-04-27T00:11:01.216Z,94401
2015-04-27T00:11:19.716Z,94390
2015-04-27T00:11:38.672Z,94401
2015-04-27T00:11:57.110Z,94396
2015-04-27T00:12:15.860Z,94396
2015-04-27T00:12:34.376Z,94396
2015-04-27T00:12:53.034Z,94396
2015-04-27T00:13:11.612Z,94401
2015-04-27T00:13:30.018Z,94407
2015-04-27T00:13:48.677Z,94405
2015-04-27T00:14:07.381Z,94396
2015-04-27T00:14:26.209Z,94396
2015-04-27T00:14:44.834Z,94393
2015-04-27T00:15:03.461Z,94390
2015-04-27T00:15:22.554Z,94399
2015-04-27T00:15:41.226Z,94393
2015-04-27T00:15:59.822Z,94405
2015-04-27T00:16:18.494Z,94385
2015-04-27T00:16:36.947Z,94388
2015-04-27T00:16:55.463Z,94396
2015-04-27T00:17:13.949Z,94388
2015-04-27T00:17:32.699Z,94393
2015-04-27T00:17:51.449Z,94399
2015-04-27T00:18:09.827Z,94388
2015-04-27T00:18:28.296Z,94388
2015-04-27T00:18:46.718Z,94388
2015-04-27T00:19:05.155Z,94385
2015-04-27T00:19:23.688Z,94385
2015-04-27T00:19:42.079Z,94388
2015-04-27T00:20:00.345Z,94391
2015-04-27T00:20:18.910Z,94382
2015-04-27T00:20:37.441Z,94385
2015-04-27T00:20:56.176Z,94388
2015-04-27T00:21:14.693Z,94397
2015-04-27T00:21:33.068Z,94391
2015-04-27T00:21:52.006Z,94391
2015-04-27T00:22:10.584Z,94377
2015-04-27T00:22:29.368Z,94371
2015-04-27T00:22:47.978Z,94374
2015-04-27T00:23:06.400Z,94371
2015-04-27T00:23:25.105Z,94374
2015-04-27T00:23:43.620Z,94371
2015-04-27T00:24:02.120Z,94371
2015-04-27T00:24:20.573Z,94371
2015-04-27T00:24:39.076Z,94366
2015-04-27T00:24:57.873Z,94375
2015-04-27T00:25:16.264Z,94375
2015-04-27T00:25:35.078Z,94369
2015-04-27T00:25:53.485Z,94372
2015-04-27T00:26:11.938Z,94372
2015-04-27T00:26:30.393Z,94372
2015-04-27T00:26:48.909Z,94372
2015-04-27T00:27:07.580Z,94363
2015-04-27T00:27:25.990Z,94372
2015-04-27T00:27:44.583Z,94369
2015-04-27T00:28:03.224Z,94369
2015-04-27T00:28:21.646Z,94366
2015-04-27T00:28:40.226Z,94366
2015-04-27T00:28:58.507Z,94358
2015-04-27T00:29:17.117Z,94366
2015-04-27T00:29:35.962Z,94372
2015-04-27T00:29:54.681Z,94372
2015-04-27T00:30:13.197Z,94372
2015-04-27T00:30:31.622Z,94369
2015-04-27T00:30:50.169Z,94372
2015-04-27T00:31:08.622Z,94369
2015-04-27T00:31:27.108Z,94361
2015-04-27T00:31:45.874Z,94361
2015-04-27T00:32:04.280Z,94358
2015-04-27T00:32:22.764Z,94369
2015-04-27T00:32:41.314Z,94358
2015-04-27T00:32:59.705Z,94364
2015-04-27T00:33:18.345Z,94358
2015-04-27T00:33:37.191Z,94367
2015-04-27T00:33:55.754Z,94361
2015-04-27T00:34:14.347Z,94359
2015-04-27T00:34:32.957Z,94359
2015-04-27T00:34:51.429Z,94356
2015-04-27T00:35:09.991Z,94362
2015-04-27T00:35:28.382Z,94356
2015-04-27T00:35:46.850Z,94362
2015-04-27T00:36:05.352Z,94356
2015-04-27T00:36:23.837Z,94357
2015-04-27T00:36:42.259Z,94356
2015-04-27T00:37:00.902Z,94356
2015-04-27T00:37:19.418Z,94356
2015-04-27T00:37:37.855Z,94356
2015-04-27T00:37:56.559Z,94359
2015-04-27T00:38:14.968Z,94356
2015-04-27T00:38:33.515Z,94354
2015-04-27T00:38:51.905Z,94356
2015-04-27T00:39:10.501Z,94364
2015-04-27T00:39:28.985Z,94359
2015-04-27T00:39:47.376Z,94356
2015-04-27T00:40:05.798Z,94348
2015-04-27T00:40:24.347Z,94356
2015-04-27T00:40:42.753Z,94348
2015-04-27T00:41:01.222Z,94351
2015-04-27T00:41:19.678Z,94354
2015-04-27T00:41:38.319Z,94353
2015-04-27T00:41:57.022Z,94355
2015-04-27T00:42:15.571Z,94367
2015-04-27T00:42:34.086Z,94367
2015-04-27T00:42:52.617Z,94361
2015-04-27T00:43:11.180Z,94369
2015-04-27T00:43:29.683Z,94373
2015-04-27T00:43:48.464Z,94364
2015-04-27T00:44:06.855Z,94364
2015-04-27T00:44:25.324Z,94364
2015-04-27T00:44:44.044Z,94367
2015-04-27T00:45:02.482Z,94376
2015-04-27T00:45:21.419Z,94370
2015-04-27T00:45:39.844Z,94370
2015-04-27T00:45:58.297Z,94382
2015-04-27T00:46:16.766Z,94364
2015-04-27T00:46:35.188Z,94364
2015-04-27T00:46:53.846Z,94370
2015-04-27T00:47:12.643Z,94364
2015-04-27T00:47:31.284Z,94359
2015-04-27T00:47:49.755Z,94359
2015-04-27T00:48:08.162Z,94364
2015-04-27T00:48:26.552Z,94359
2015-04-27T00:48:45.177Z,94362
2015-04-27T00:49:03.836Z,94354
2015-04-27T00:49:22.492Z,94364
2015-04-27T00:49:41.039Z,94367
2015-04-27T00:49:59.651Z,94373
2015-04-27T00:50:18.510Z,94370
2015-04-27T00:50:37.104Z,94373
2015-04-27T00:50:55.497Z,94371
2015-04-27T00:51:14.481Z,94365
2015-04-27T00:51:33.075Z,94362
2015-04-27T00:51:51.794Z,94362
2015-04-27T00:52:10.218Z,94356
2015-04-27T00:52:28.811Z,94362
2015-04-27T00:52:47.546Z,94365
2015-04-27T00:53:05.955Z,94363
2015-04-27T00:53:24.642Z,94363
2015-04-27T00:53:43.392Z,94368
2015-04-27T00:54:01.785Z,94368
2015-04-27T00:54:20.473Z,94360
2015-04-27T00:54:39.176Z,94374
2015-04-27T00:54:57.582Z,94366
2015-04-27T00:55:16.381Z,94363
2015-04-27T00:55:35.146Z,94369
2015-04-27T00:55:53.803Z,94372
2015-04-27T00:56:12.399Z,94366
2015-04-27T00:56:31.071Z,94366
2015-04-27T00:56:49.728Z,94363
2015-04-27T00:57:08.167Z,94361
2015-04-27T00:57:26.792Z,94364
2015-04-27T00:57:45.292Z,94361
2015-04-27T00:58:03.761Z,94358
2015-04-27T00:58:22.389Z,94361
2015-04-27T00:58:41.248Z,94355
2015-04-27T00:58:59.936Z,94361
2015-04-27T00:59:18.594Z,94358
2015-04-27T00:59:37.360Z,94364
2015-04-27T00:59:55.797Z,94372
2015-04-27T01:00:14.281Z,94367
2015-04-27T01:00:33.050Z,94361
2015-04-27T01:00:51.597Z,94364
2015-04-27T01:01:10.284Z,94356
2015-04-27T01:01:28.691Z,94367
2015-04-27T01:01:47.396Z,94367
2015-04-27T01:02:05.193Z,94370
2015-04-27T01:02:23.771Z,94373
2015-04-27T01:02:42.758Z,94365
2015-04-27T01:03:01.258Z,94356
2015-04-27T01:03:19.836Z,94365
2015-04-27T01:03:38.368Z,94368
2015-04-27T01:03:56.916Z,94362
2015-04-27T01:04:15.307Z,94374
2015-04-27T01:04:33.979Z,94371
2015-04-27T01:04:52.451Z,94382
2015-04-27T01:05:11.654Z,94374
2015-04-27T01:05:30.044Z,94365
2015-04-27T01:05:48.656Z,94374
2015-04-27T01:06:07.171Z,94368
2015-04-27T01:06:25.640Z,94368
2015-04-27T01:06:44.062Z,94368
2015-04-27T01:07:02.518Z,94368
2015-04-27T01:07:21.159Z,94366
2015-04-27T01:07:39.706Z,94369
2015-04-27T01:07:58.348Z,94363
2015-04-27T01:08:16.801Z,94363
2015-04-27T01:08:35.364Z,94369
2015-04-27T01:08:53.864Z,94355
2015-04-27T01:09:12.273Z,94358
2015-04-27T01:09:30.695Z,94369
2015-04-27T01:09:49.304Z,94363
2015-04-27T01:10:07.758Z,94366
2015-04-27T01:10:26.464Z,94361
2015-04-27T01:10:44.870Z,94369
2015-04-27T01:11:03.479Z,94364
2015-04-27T01:11:22.075Z,94369
2015-04-27T01:11:40.497Z,94361
2015-04-27T01:11:59.013Z,94372
2015-04-27T01:12:17.544Z,94370
2015-04-27T01:12:36.077Z,94364
2015-04-27T01:12:54.655Z,94367
2015-04-27T01:13:13.093Z,94370
2015-04-27T01:13:31.908Z,94370
2015-04-27T01:13:50.674Z,94364
2015-04-27T01:14:09.299Z,94356
2015-04-27T01:14:27.880Z,94356
2015-04-27T01:14:46.380Z,94364
2015-04-27T01:15:05.067Z,94364
2015-04-27T01:15:23.802Z,94362
2015-04-27T01:15:42.194Z,94365
2015-04-27T01:16:00.741Z,94365
2015-04-27T01:16:19.273Z,94359
2015-04-27T01:16:37.898Z,94359
2015-04-27T01:16:56.510Z,94354
2015-04-27T01:17:15.026Z,94365
2015-04-27T01:17:33.557Z,94351
2015-04-27T01:17:52.137Z,94354
2015-04-27T01:18:10.668Z,94351
2015-04-27T01:18:29.121Z,94348
2015-04-27T01:18:47.684Z,94362
2015-04-27T01:19:06.155Z,94362
2015-04-27T01:19:24.717Z,94359
2015-04-27T01:19:43.358Z,94346
2015-04-27T01:20:01.970Z,94351
2015-04-27T01:20:20.579Z,94354
2015-04-27T01:20:39.298Z,94359
2015-04-27T01:20:57.722Z,94349
2015-04-27T01:21:16.160Z,94340
2015-04-27T01:21:34.722Z,94356
2015-04-27T01:21:53.363Z,94346
2015-04-27T01:22:11.803Z,94349
2015-04-27T01:22:30.506Z,94352
2015-04-27T01:22:49.147Z,94346
2015-04-27T01:23:07.883Z,94356
2015-04-27T01:23:26.493Z,94349
2015-04-27T01:23:44.993Z,94359
2015-04-27T01:24:03.508Z,94356
2015-04-27T01:24:22.136Z,94346
2015-04-27T01:24:40.558Z,94343
2015-04-27T01:24:59.011Z,94349
2015-04-27T01:25:17.480Z,94352
2015-04-27T01:25:35.999Z,94346
2015-04-27T01:25:54.608Z,94352
2015-04-27T01:26:13.311Z,94341
2015-04-27T01:26:31.251Z,94352
2015-04-27T01:26:49.891Z,94344
2015-04-27T01:27:08.516Z,94347
2015-04-27T01:27:27.051Z,94341
2015-04-27T01:27:45.519Z,94341
2015-04-27T01:28:04.144Z,94352
2015-04-27T01:28:22.597Z,94350
2015-04-27T01:28:40.990Z,94344
2015-04-27T01:28:59.756Z,94350
2015-04-27T01:29:18.271Z,94338
2015-04-27T01:29:36.756Z,94341
2015-04-27T01:29:55.259Z,94355
2015-04-27T01:30:13.790Z,94350
2015-04-27T01:30:32.431Z,94350
2015-04-27T01:30:50.823Z,94350
2015-04-27T01:31:09.354Z,94353
2015-04-27T01:31:27.886Z,94350
2015-04-27T01:31:46.479Z,94348
2015-04-27T01:32:04.936Z,94345
2015-04-27T01:32:23.498Z,94345
2015-04-27T01:32:42.420Z,94351
2015-04-27T01:33:01.250Z,94351
2015-04-27T01:33:19.766Z,94348
2015-04-27T01:33:38.359Z,94345
2015-04-27T01:33:56.908Z,94356
2015-04-27T01:34:15.627Z,94356
2015-04-27T01:34:34.549Z,94354
2015-04-27T01:34:53.033Z,94340
2015-04-27T01:35:11.521Z,94348
2015-04-27T01:35:30.052Z,94351
2015-04-27T01:35:48.771Z,94340
2015-04-27T01:36:07.226Z,94345
2015-04-27T01:36:25.835Z,94348
2015-04-27T01:36:44.366Z,94346
2015-04-27T01:37:02.947Z,94351
2015-04-27T01:37:21.556Z,94343
2015-04-27T01:37:39.962Z,94346
2015-04-27T01:37:58.353Z,94337
2015-04-27T01:38:16.887Z,94348
2015-04-27T01:38:35.278Z,94351
2015-04-27T01:38:53.793Z,94346
2015-04-27T01:39:12.278Z,94343
2015-04-27T01:39:30.811Z,94343
2015-04-27T01:39:49.280Z,94351
2015-04-27T01:40:07.827Z,94351
2015-04-27T01:40:26.767Z,94348
2015-04-27T01:40:45.408Z,94343
2015-04-27T01:41:04.017Z,94346
2015-04-27T01:41:22.597Z,94348
2015-04-27T01:41:41.191Z,94348
2015-04-27T01:41:59.707Z,94343
2015-04-27T01:42:18.144Z,94340
2015-04-27T01:42:36.631Z,94334
2015-04-27T01:42:55.210Z,94334
2015-04-27T01:43:13.803Z,94334
2015-04-27T01:43:32.446Z,94337
2015-04-27T01:43:51.071Z,94343
2015-04-27T01:44:10.008Z,94334
2015-04-27T01:44:28.712Z,94332
2015-04-27T01:44:47.152Z,94343
2015-04-27T01:45:05.996Z,94332
2015-04-27T01:45:24.433Z,94329
2015-04-27T01:45:42.982Z,94334
2015-04-27T01:46:01.560Z,94337
2015-04-27T01:46:20.013Z,94335
2015-04-27T01:46:38.513Z,94338
2015-04-27T01:46:57.203Z,94337
2015-04-27T01:47:16.250Z,94338
2015-04-27T01:47:34.765Z,94337
2015-04-27T01:47:53.503Z,94332
2015-04-27T01:48:11.925Z,94337
2015-04-27T01:48:30.534Z,94337
2015-04-27T01:48:49.068Z,94329
2015-04-27T01:49:07.693Z,94335
2015-04-27T01:49:26.209Z,94329
2015-04-27T01:49:44.693Z,94329
2015-04-27T01:50:03.086Z,94334
2015-04-27T01:50:21.758Z,94326
2015-04-27T01:50:40.242Z,94334
2015-04-27T01:50:58.680Z,94323
2015-04-27T01:51:16.916Z,94326
2015-04-27T01:51:35.775Z,94329
2015-04-27T01:51:54.838Z,94318
2015-04-27T01:52:13.841Z,94323
2015-04-27T01:52:31.825Z,94323
2015-04-27T01:52:50.466Z,94323
2015-04-27T01:53:09.234Z,94332
2015-04-27T01:53:27.905Z,94329
2015-04-27T01:53:46.421Z,94321
2015-04-27T01:54:05.030Z,94321
2015-04-27T01:54:24.424Z,94321
2015-04-27T01:54:43.643Z,94318
2015-04-27T01:55:02.346Z,94324
2015-04-27T01:55:21.145Z,94318
2015-04-27T01:55:40.051Z,94327
2015-04-27T01:55:58.629Z,94327
2015-04-27T01:56:17.145Z,94321
2015-04-27T01:56:35.585Z,94318
2015-04-27T01:56:54.304Z,94316
2015-04-27T01:57:13.132Z,94316
2015-04-27T01:57:31.620Z,94322
2015-04-27T01:57:50.026Z,94313
2015-04-27T01:58:08.432Z,94322
2015-04-27T01:58:26.885Z,94322
2015-04-27T01:58:45.278Z,94325
2015-04-27T01:59:03.700Z,94325
2015-04-27T01:59:22.356Z,94325
2015-04-27T01:59:40.840Z,94328
2015-04-27T01:59:59.421Z,94325
2015-04-27T02:00:17.781Z,94331
2015-04-27T02:00:36.343Z,94328
2015-04-27T02:00:54.830Z,94331
2015-04-27T02:01:13.361Z,94337
2015-04-27T02:01:31.752Z,94337
2015-04-27T02:01:50.173Z,94328
2015-04-27T02:02:08.864Z,94331
2015-04-27T02:02:27.255Z,94329
2015-04-27T02:02:45.755Z,94331
2015-04-27T02:03:04.225Z,94328
2015-04-27T02:03:22.803Z,94328
2015-04-27T02:03:41.382Z,94326
2015-04-27T02:03:59.913Z,94326
2015-04-27T02:04:18.446Z,94326
2015-04-27T02:04:37.384Z,94331
2015-04-27T02:04:55.930Z,94326
2015-04-27T02:05:14.480Z,94320
2015-04-27T02:05:32.871Z,94326
2015-04-27T02:05:51.293Z,94323
2015-04-27T02:06:09.762Z,94326
2015-04-27T02:06:28.764Z,94317
2015-04-27T02:06:47.451Z,94329
2015-04-27T02:07:06.232Z,94323
2015-04-27T02:07:24.704Z,94323
2015-04-27T02:07:43.360Z,94329
2015-04-27T02:08:01.751Z,94320
2015-04-27T02:08:20.267Z,94323
2015-04-27T02:08:39.144Z,94329
2015-04-27T02:08:58.003Z,94326
2015-04-27T02:09:16.628Z,94323
2015-04-27T02:09:35.210Z,94318
2015-04-27T02:09:53.679Z,94326
2015-04-27T02:10:12.101Z,94324
2015-04-27T02:10:30.554Z,94321
2015-04-27T02:10:49.070Z,94315
2015-04-27T02:11:07.570Z,94318
2015-04-27T02:11:26.305Z,94315
2015-04-27T02:11:44.761Z,94312
2015-04-27T02:12:03.495Z,94318
2015-04-27T02:12:22.058Z,94321
2015-04-27T02:12:40.655Z,94318
2015-04-27T02:12:59.498Z,94312
2015-04-27T02:13:18.092Z,94324
2015-04-27T02:13:36.483Z,94318
2015-04-27T02:13:55.312Z,94324
2015-04-27T02:14:14.031Z,94318
2015-04-27T02:14:32.671Z,94324
2015-04-27T02:14:51.393Z,94315
2015-04-27T02:15:09.987Z,94315
2015-04-27T02:15:28.549Z,94312
2015-04-27T02:15:47.192Z,94309
2015-04-27T02:16:05.614Z,94318
2015-04-27T02:16:24.223Z,94318
2015-04-27T02:16:42.551Z,94312
2015-04-27T02:17:00.961Z,94318
2015-04-27T02:17:19.493Z,94309
2015-04-27T02:17:37.993Z,94321
2015-04-27T02:17:56.493Z,94324
2015-04-27T02:18:14.870Z,94318
2015-04-27T02:18:33.260Z,94318
2015-04-27T02:18:51.807Z,94318
2015-04-27T02:19:10.231Z,94318
2015-04-27T02:19:28.622Z,94312
2015-04-27T02:19:47.075Z,94318
2015-04-27T02:20:05.903Z,94310
2015-04-27T02:20:24.296Z,94307
2015-04-27T02:20:42.983Z,94309
2015-04-27T02:21:01.421Z,94307
2015-04-27T02:21:20.017Z,94321
2015-04-27T02:21:38.689Z,94307
2015-04-27T02:21:57.142Z,94307
2015-04-27T02:22:15.767Z,94307
2015-04-27T02:22:34.208Z,94301
2015-04-27T02:22:52.630Z,94307
2015-04-27T02:23:11.208Z,94301
2015-04-27T02:23:29.616Z,94315
2015-04-27T02:23:47.475Z,94313
2015-04-27T02:24:05.944Z,94315
2015-04-27T02:24:24.741Z,94313
2015-04-27T02:24:43.227Z,94313
2015-04-27T02:25:01.649Z,94310
2015-04-27T02:25:20.196Z,94307
2015-04-27T02:25:38.715Z,94315
2015-04-27T02:25:57.355Z,94313
2015-04-27T02:26:16.121Z,94304
2015-04-27T02:26:34.779Z,94304
2015-04-27T02:26:53.170Z,94316
2015-04-27T02:27:12.107Z,94313
2015-04-27T02:27:30.686Z,94313
2015-04-27T02:27:49.095Z,94319
2015-04-27T02:28:07.673Z,94307
2015-04-27T02:28:26.376Z,94302
2015-04-27T02:28:44.860Z,94307
2015-04-27T02:29:03.452Z,94307
2015-04-27T02:29:22.233Z,94302
2015-04-27T02:29:40.623Z,94305
2015-04-27T02:29:59.194Z,94305
2015-04-27T02:30:17.726Z,94302
2015-04-27T02:30:36.194Z,94302
2015-04-27T02:30:54.663Z,94299
2015-04-27T02:31:13.139Z,94302
2015-04-27T02:31:31.827Z,94307
2015-04-27T02:31:50.217Z,94307
2015-04-27T02:32:08.851Z,94302
2015-04-27T02:32:27.601Z,94305
2015-04-27T02:32:46.148Z,94296
2015-04-27T02:33:04.841Z,94288
2015-04-27T02:33:23.466Z,94302
2015-04-27T02:33:41.935Z,94299
2015-04-27T02:34:00.435Z,94302
2015-04-27T02:34:19.041Z,94299
2015-04-27T02:34:37.525Z,94299
2015-04-27T02:34:56.010Z,94302
2015-04-27T02:35:14.744Z,94299
2015-04-27T02:35:33.348Z,94296
2015-04-27T02:35:51.910Z,94294
2015-04-27T02:36:10.598Z,94297
2015-04-27T02:36:29.077Z,94299
2015-04-27T02:36:47.514Z,94299
2015-04-27T02:37:06.186Z,94288
2015-04-27T02:37:24.748Z,94299
2015-04-27T02:37:43.382Z,94302
2015-04-27T02:38:01.773Z,94294
2015-04-27T02:38:19.523Z,94293
2015-04-27T02:38:37.923Z,94296
2015-04-27T02:38:56.501Z,94299
2015-04-27T02:39:14.938Z,94305
2015-04-27T02:39:33.579Z,94299
2015-04-27T02:39:52.054Z,94294
2015-04-27T02:40:10.647Z,94294
2015-04-27T02:40:29.116Z,94288
2015-04-27T02:40:47.762Z,94294
2015-04-27T02:41:06.231Z,94294
2015-04-27T02:41:24.793Z,94291
2015-04-27T02:41:43.626Z,94285
2015-04-27T02:42:02.329Z,94291
2015-04-27T02:42:20.939Z,94299
2015-04-27T02:42:39.392Z,94294
2015-04-27T02:42:57.835Z,94288
2015-04-27T02:43:16.679Z,94285
2015-04-27T02:43:35.273Z,94288
2015-04-27T02:43:53.855Z,94288
2015-04-27T02:44:12.605Z,94294
2015-04-27T02:44:31.058Z,94294
2015-04-27T02:44:49.902Z,94294
2015-04-27T02:45:08.561Z,94294
2015-04-27T02:45:27.124Z,94291
2015-04-27T02:45:45.717Z,94291
2015-04-27T02:46:04.502Z,94288
2015-04-27T02:46:23.111Z,94288
2015-04-27T02:46:41.595Z,94288
2015-04-27T02:47:00.017Z,94280
2015-04-27T02:47:18.646Z,94288
2015-04-27T02:47:37.224Z,94283
2015-04-27T02:47:55.740Z,94277
2015-04-27T02:48:14.399Z,94277
2015-04-27T02:48:32.774Z,94283
2015-04-27T02:48:51.555Z,94277
2015-04-27T02:49:10.024Z,94277
2015-04-27T02:49:28.637Z,94280
2015-04-27T02:49:47.387Z,94277
2015-04-27T02:50:05.824Z,94269
2015-04-27T02:50:24.265Z,94277
2015-04-27T02:50:42.874Z,94280
2015-04-27T02:51:01.671Z,94274
2015-04-27T02:51:20.282Z,94280
2015-04-27T02:51:38.751Z,94277
2015-04-27T02:51:57.142Z,94277
2015-04-27T02:52:15.735Z,94269
2015-04-27T02:52:34.473Z,94274
2015-04-27T02:52:53.082Z,94274
2015-04-27T02:53:11.473Z,94286
2015-04-27T02:53:29.944Z,94280
2015-04-27T02:53:48.382Z,94277
2015-04-27T02:54:07.163Z,94283
2015-04-27T02:54:25.804Z,94277
2015-04-27T02:54:44.416Z,94280
2015-04-27T02:55:02.947Z,94275
2015-04-27T02:55:21.385Z,94280
2015-04-27T02:55:40.104Z,94272
2015-04-27T02:55:58.559Z,94280
2015-04-27T02:56:17.121Z,94283
2015-04-27T02:56:35.574Z,94277
2015-04-27T02:56:54.124Z,94277
2015-04-27T02:57:12.718Z,94280
2015-04-27T02:57:31.109Z,94271
2015-04-27T02:57:49.562Z,94277
2015-04-27T02:58:08.111Z,94274
2015-04-27T02:58:26.501Z,94269
2015-04-27T02:58:44.986Z,94283
2015-04-27T02:59:03.520Z,94280
2015-04-27T02:59:21.895Z,94274
2015-04-27T02:59:40.489Z,94280
2015-04-27T02:59:58.786Z,94280
2015-04-27T03:00:17.256Z,94272
2015-04-27T03:00:35.647Z,94286
2015-04-27T03:00:54.428Z,94277
2015-04-27T03:01:13.025Z,94283
2015-04-27T03:01:31.462Z,94275
2015-04-27T03:01:49.853Z,94277
2015-04-27T03:02:08.447Z,94275
2015-04-27T03:02:26.824Z,94272
2015-04-27T03:02:45.214Z,94272
2015-04-27T03:03:03.793Z,94275
2015-04-27T03:03:22.217Z,94266
2015-04-27T03:03:40.702Z,94284
2015-04-27T03:03:59.483Z,94275
2015-04-27T03:04:18.032Z,94281
2015-04-27T03:04:36.469Z,94272
2015-04-27T03:04:55.094Z,94284
2015-04-27T03:05:13.938Z,94278
2015-04-27T03:05:32.722Z,94278
2015-04-27T03:05:51.176Z,94284
2015-04-27T03:06:09.879Z,94279
2015-04-27T03:06:28.632Z,94290
2015-04-27T03:06:47.054Z,94282
2015-04-27T03:07:05.647Z,94282
2015-04-27T03:07:24.272Z,94282
2015-04-27T03:07:42.899Z,94279
2015-04-27T03:08:01.352Z,94279
2015-04-27T03:08:19.884Z,94273
2015-04-27T03:08:38.306Z,94268
2015-04-27T03:08:56.965Z,94279
2015-04-27T03:09:15.637Z,94273
2015-04-27T03:09:34.043Z,94271
2015-04-27T03:09:52.514Z,94268
2015-04-27T03:10:10.904Z,94271
2015-04-27T03:10:29.295Z,94277
2015-04-27T03:10:47.811Z,94271
2015-04-27T03:11:06.579Z,94265
2015-04-27T03:11:25.001Z,94268
2015-04-27T03:11:43.579Z,94262
2015-04-27T03:12:02.144Z,94262
2015-04-27T03:12:20.566Z,94262
2015-04-27T03:12:38.956Z,94265
2015-04-27T03:12:57.550Z,94265
2015-04-27T03:13:15.927Z,94260
2015-04-27T03:13:34.583Z,94265
2015-04-27T03:13:53.130Z,94265
2015-04-27T03:14:11.664Z,94260
2015-04-27T03:14:30.055Z,94265
2015-04-27T03:14:48.446Z,94271
2015-04-27T03:15:06.852Z,94265
2015-04-27T03:15:25.416Z,94277
2015-04-27T03:15:43.948Z,94265
2015-04-27T03:16:02.541Z,94263
2015-04-27T03:16:20.371Z,94265
2015-04-27T03:16:38.856Z,94271
2015-04-27T03:16:57.528Z,94268
2015-04-27T03:17:15.965Z,94266
2015-04-27T03:17:34.421Z,94271
2015-04-27T03:17:52.968Z,94266
2015-04-27T03:18:11.406Z,94269
2015-04-27T03:18:29.862Z,94271
2015-04-27T03:18:48.377Z,94266
2015-04-27T03:19:06.831Z,94271
2015-04-27T03:19:25.284Z,94263
2015-04-27T03:19:43.958Z,94269
2015-04-27T03:20:02.442Z,94269
2015-04-27T03:20:20.848Z,94266
2015-04-27T03:20:39.288Z,94263
2015-04-27T03:20:57.897Z,94257
2015-04-27T03:21:16.303Z,94266
2015-04-27T03:21:34.960Z,94257
2015-04-27T03:21:53.447Z,94260
2015-04-27T03:22:12.025Z,94266
2015-04-27T03:22:30.650Z,94263
2015-04-27T03:22:49.481Z,94263
2015-04-27T03:23:07.966Z,94272
2015-04-27T03:23:26.481Z,94258
2015-04-27T03:23:44.919Z,94263
2015-04-27T03:24:03.593Z,94260
2015-04-27T03:24:22.327Z,94263
2015-04-27T03:24:40.827Z,94252
2015-04-27T03:24:59.221Z,94258
2015-04-27T03:25:17.658Z,94269
2015-04-27T03:25:36.424Z,94261
2015-04-27T03:25:54.971Z,94272
2015-04-27T03:26:13.582Z,94266
2015-04-27T03:26:32.269Z,94266
2015-04-27T03:26:50.691Z,94264
2015-04-27T03:27:09.209Z,94264
2015-04-27T03:27:27.693Z,94270
2015-04-27T03:27:46.193Z,94270
2015-04-27T03:28:04.884Z,94264
2015-04-27T03:28:23.509Z,94270
2015-04-27T03:28:41.993Z,94270
2015-04-27T03:29:00.399Z,94267
2015-04-27T03:29:18.918Z,94272
2015-04-27T03:29:37.715Z,94267
2015-04-27T03:29:56.199Z,94267
2015-04-27T03:30:14.920Z,94261
2015-04-27T03:30:33.483Z,94270
2015-04-27T03:30:52.154Z,94275
2015-04-27T03:31:10.826Z,94272
2015-04-27T03:31:29.219Z,94261
2015-04-27T03:31:47.656Z,94261
2015-04-27T03:32:06.188Z,94270
2015-04-27T03:32:24.797Z,94273
2015-04-27T03:32:43.331Z,94267
2015-04-27T03:33:01.863Z,94270
2015-04-27T03:33:20.409Z,94276
2015-04-27T03:33:39.272Z,94270
2015-04-27T03:33:57.756Z,94270
2015-04-27T03:34:16.475Z,94267
2015-04-27T03:34:35.102Z,94267
2015-04-27T03:34:53.633Z,94265
2015-04-27T03:35:12.039Z,94265
2015-04-27T03:35:30.633Z,94273
2015-04-27T03:35:49.245Z,94262
2015-04-27T03:36:07.635Z,94262
2015-04-27T03:36:26.182Z,94254
2015-04-27T03:36:44.729Z,94262
2015-04-27T03:37:03.138Z,94259
2015-04-27T03:37:21.654Z,94268
2015-04-27T03:37:40.076Z,94270
2015-04-27T03:37:58.844Z,94265
2015-04-27T03:38:17.454Z,94274
2015-04-27T03:38:35.891Z,94265
2015-04-27T03:38:54.549Z,94265
2015-04-27T03:39:13.128Z,94271
2015-04-27T03:39:32.128Z,94271
2015-04-27T03:39:50.831Z,94263
2015-04-27T03:40:09.255Z,94271
2015-04-27T03:40:27.958Z,94271
2015-04-27T03:40:46.473Z,94269
2015-04-27T03:41:04.913Z,94263
2015-04-27T03:41:23.428Z,94272
2015-04-27T03:41:41.928Z,94272
2015-04-27T03:42:00.475Z,94272
2015-04-27T03:42:19.197Z,94269
2015-04-27T03:42:37.603Z,94272
2015-04-27T03:42:56.072Z,94271
2015-04-27T03:43:14.575Z,94274
2015-04-27T03:43:33.216Z,94266
2015-04-27T03:43:51.903Z,94268
2015-04-27T03:44:10.608Z,94266
2015-04-27T03:44:29.280Z,94268
2015-04-27T03:44:47.780Z,94268
2015-04-27T03:45:06.577Z,94268
2015-04-27T03:45:25.220Z,94265
2015-04-27T03:45:43.673Z,94263
2015-04-27T03:46:02.360Z,94262
2015-04-27T03:46:20.801Z,94260
2015-04-27T03:46:39.332Z,94268
2015-04-27T03:46:57.738Z,94271
2015-04-27T03:47:16.551Z,94279
2015-04-27T03:47:35.256Z,94268
2015-04-27T03:47:54.037Z,94271
2015-04-27T03:48:12.834Z,94274
2015-04-27T03:48:31.336Z,94277
2015-04-27T03:48:49.867Z,94282
2015-04-27T03:49:08.258Z,94277
2015-04-27T03:49:26.649Z,94274
2015-04-27T03:49:45.184Z,94268
2015-04-27T03:50:03.606Z,94271
2015-04-27T03:50:22.090Z,94268
2015-04-27T03:50:40.514Z,94277
2015-04-27T03:50:59.123Z,94262
2015-04-27T03:51:18.014Z,94265
2015-04-27T03:51:36.500Z,94265
2015-04-27T03:51:54.953Z,94274
2015-04-27T03:52:13.328Z,94265
2015-04-27T03:52:32.000Z,94268
2015-04-27T03:52:50.394Z,94276
2015-04-27T03:53:08.878Z,94268
2015-04-27T03:53:27.285Z,94274
2015-04-27T03:53:45.894Z,94265
2015-04-27T03:54:04.537Z,94268
2015-04-27T03:54:23.130Z,94271
2015-04-27T03:54:41.568Z,94274
2015-04-27T03:55:00.274Z,94271
2015-04-27T03:55:18.711Z,94268
2015-04-27T03:55:37.196Z,94271
2015-04-27T03:55:56.151Z,94274
2015-04-27T03:56:14.682Z,94265
2015-04-27T03:56:33.198Z,94271
2015-04-27T03:56:51.838Z,94265
2015-04-27T03:57:10.232Z,94271
2015-04-27T03:57:28.716Z,94271
2015-04-27T03:57:47.170Z,94277
2015-04-27T03:58:05.779Z,94274
2015-04-27T03:58:24.359Z,94277
2015-04-27T03:58:42.984Z,94277
2015-04-27T03:59:01.625Z,94274